Time;durP1;ratioP1;P1;durP2;ratioP2;P2;SDS_P1;SDS_P2;PMS_P1;PMS_P2;Temp;Humidity;BMP_temperature;BMP_pressure;BME280_temperature;BME280_humidity;BME280_pressure;Samples;Min_cycle;Max_cycle;Signal;HPM_P1;HPM_P2
2021/12/27 00:00:10;;;;;;;16.70;11.20;;;;;;;2.52;100.00;100002.84;2106872;28;20385;-67
2021/12/27 00:01:12;;;;;;;19.65;12.45;;;;;;;2.53;100.00;100004.53;2106709;28;20318;-67
2021/12/27 00:02:13;;;;;;;18.38;12.07;;;;;;;2.55;100.00;100001.91;2106849;28;20040;-67
2021/12/27 00:03:13;;;;;;;16.07;11.13;;;;;;;2.53;100.00;100009.66;2106634;28;20046;-67
2021/12/27 00:04:14;;;;;;;21.48;14.00;;;;;;;2.53;100.00;100004.53;2106845;28;20103;-68
2021/12/27 00:05:14;;;;;;;19.40;12.30;;;;;;;2.54;100.00;100002.81;2106558;28;20115;-67
2021/12/27 00:06:16;;;;;;;18.23;12.18;;;;;;;2.53;100.00;99999.38;2097505;28;20029;-66
2021/12/27 00:07:16;;;;;;;19.92;12.60;;;;;;;2.52;100.00;100005.41;2097677;28;20035;-66
2021/12/27 00:08:16;;;;;;;19.70;12.13;;;;;;;2.52;100.00;100002.84;2106536;28;20055;-67
2021/12/27 00:09:17;;;;;;;18.17;12.73;;;;;;;2.54;100.00;100005.38;2097598;28;20389;-67
2021/12/27 00:10:19;;;;;;;18.03;12.03;;;;;;;2.53;100.00;100004.53;2097751;28;20020;-67
2021/12/27 00:11:19;;;;;;;18.52;13.10;;;;;;;2.53;100.00;100004.53;2107842;28;20031;-68
2021/12/27 00:12:20;;;;;;;20.13;12.60;;;;;;;2.53;100.00;99999.38;2108356;28;20522;-68
2021/12/27 00:13:20;;;;;;;17.33;12.17;;;;;;;2.54;100.00;100006.19;2108341;28;20047;-67
2021/12/27 00:14:20;;;;;;;18.67;11.93;;;;;;;2.54;100.00;100000.22;2099255;28;20044;-67
2021/12/27 00:15:20;;;;;;;18.23;11.20;;;;;;;2.55;100.00;100002.78;2099348;28;20029;-67
2021/12/27 00:16:21;;;;;;;17.87;11.63;;;;;;;2.56;100.00;100008.75;2108265;28;20036;-67
2021/12/27 00:17:21;;;;;;;17.43;12.00;;;;;;;2.55;100.00;100002.78;2099195;28;20033;-67
2021/12/27 00:18:21;;;;;;;15.67;10.53;;;;;;;2.55;100.00;100000.19;2099306;28;20078;-67
2021/12/27 00:19:22;;;;;;;16.67;11.47;;;;;;;2.56;100.00;100001.88;2108225;28;20081;-67
2021/12/27 00:20:22;;;;;;;16.33;10.93;;;;;;;2.57;100.00;99995.84;2108285;28;20032;-67
2021/12/27 00:21:23;;;;;;;18.27;11.70;;;;;;;2.59;100.00;100002.72;2099223;28;20405;-68
2021/12/27 00:22:23;;;;;;;18.87;12.67;;;;;;;2.59;100.00;100005.28;2099363;28;20033;-67
2021/12/27 00:23:23;;;;;;;19.60;11.67;;;;;;;2.57;100.00;100003.56;2099248;28;20029;-67
2021/12/27 00:24:24;;;;;;;17.20;11.20;;;;;;;2.60;100.00;100001.81;2099247;28;20059;-68
2021/12/27 00:25:26;;;;;;;18.90;12.70;;;;;;;2.60;100.00;99994.09;2108261;28;20056;-68
2021/12/27 00:26:26;;;;;;;19.23;12.38;;;;;;;2.59;100.00;99992.41;2108182;28;20031;-67
2021/12/27 00:27:27;;;;;;;16.23;11.13;;;;;;;2.58;100.00;100001.84;2108077;28;20058;-67
2021/12/27 00:28:27;;;;;;;19.83;12.07;;;;;;;2.58;100.00;99996.69;2099145;28;20021;-67
2021/12/27 00:29:28;;;;;;;19.67;12.23;;;;;;;2.60;100.00;99994.91;2099168;28;20013;-68
2021/12/27 00:30:29;;;;;;;17.73;11.85;;;;;;;2.60;100.00;99994.09;2108223;28;20048;-67
2021/12/27 00:31:29;;;;;;;19.90;12.67;;;;;;;2.59;100.00;99992.41;2108139;28;20067;-68
2021/12/27 00:32:30;;;;;;;18.93;12.60;;;;;;;2.61;100.00;99986.31;2108230;28;20072;-68
2021/12/27 00:33:30;;;;;;;17.77;11.47;;;;;;;2.61;100.00;99994.06;2108117;28;20095;-67
2021/12/27 00:34:30;;;;;;;16.93;11.30;;;;;;;2.60;100.00;99996.66;2108147;28;20065;-68
2021/12/27 00:35:32;;;;;;;19.13;13.23;;;;;;;2.61;100.00;99977.75;2108115;28;20035;-67
2021/12/27 00:36:32;;;;;;;20.80;12.60;;;;;;;2.61;100.00;99990.63;2108064;28;20062;-66
2021/12/27 00:37:34;;;;;;;17.27;12.80;;;;;;;2.62;100.00;99982.00;2108139;28;20050;-67
2021/12/27 00:38:34;;;;;;;19.35;13.05;;;;;;;2.63;100.00;99978.56;2108094;28;20081;-67
2021/12/27 00:39:34;;;;;;;19.27;11.00;;;;;;;2.64;100.00;99981.06;2108058;28;20528;-66
2021/12/27 00:40:35;;;;;;;20.13;14.00;;;;;;;2.64;100.00;99975.09;2108100;28;20024;-67
2021/12/27 00:41:36;;;;;;;18.77;12.63;;;;;;;2.65;100.00;99976.78;2108024;28;20453;-67
2021/12/27 00:42:36;;;;;;;19.87;12.93;;;;;;;2.63;100.00;99974.25;2108072;28;20031;-67
2021/12/27 00:43:37;;;;;;;20.00;12.52;;;;;;;2.63;100.00;99969.09;2108053;28;20340;-67
2021/12/27 00:44:37;;;;;;;16.00;11.50;;;;;;;2.63;100.00;99970.84;2108050;28;20028;-67
2021/12/27 00:45:38;;;;;;;19.87;12.13;;;;;;;2.65;100.00;99971.63;2108022;28;20020;-66
2021/12/27 00:46:38;;;;;;;18.08;12.23;;;;;;;2.65;100.00;99963.91;2108059;28;20016;-66
2021/12/27 00:47:38;;;;;;;18.73;12.97;;;;;;;2.66;100.00;99968.16;2108009;28;20496;-66
2021/12/27 00:48:38;;;;;;;17.33;12.37;;;;;;;2.66;100.00;99963.00;2098927;28;20020;-67
2021/12/27 00:49:39;;;;;;;15.20;11.37;;;;;;;2.66;100.00;99957.84;2099131;28;20147;-66
2021/12/27 00:50:39;;;;;;;21.37;13.23;;;;;;;2.67;100.00;99960.41;2108055;28;20020;-66
2021/12/27 00:51:39;;;;;;;17.17;12.00;;;;;;;2.69;100.00;99957.78;2108113;28;20027;-66
2021/12/27 00:52:40;;;;;;;21.07;14.13;;;;;;;2.69;100.00;99957.78;2107421;28;20059;-67
2021/12/27 00:53:40;;;;;;;18.00;11.77;;;;;;;2.70;100.00;99955.19;2107297;28;20122;-66
2021/12/27 00:54:40;;;;;;;18.90;11.83;;;;;;;2.70;100.00;99955.19;2108002;28;20278;-66
2021/12/27 00:55:41;;;;;;;17.67;11.83;;;;;;;2.71;100.00;99953.47;2108004;28;20028;-67
2021/12/27 00:56:42;;;;;;;19.70;11.77;;;;;;;2.73;100.00;99953.44;2108045;28;20091;-66
2021/12/27 00:57:42;;;;;;;19.17;12.55;;;;;;;2.72;100.00;99952.56;2107998;28;20443;-66
2021/12/27 00:58:43;;;;;;;18.35;12.02;;;;;;;2.75;100.00;99957.66;2108075;28;20053;-66
2021/12/27 00:59:43;;;;;;;21.30;13.07;;;;;;;2.74;100.00;99961.09;2107907;28;20024;-66
2021/12/27 01:00:43;;;;;;;19.47;11.80;;;;;;;2.75;100.00;99955.06;2108040;28;20020;-67
2021/12/27 01:01:44;;;;;;;18.63;12.80;;;;;;;2.76;100.00;99959.34;2107986;28;20016;-67
2021/12/27 01:02:45;;;;;;;23.47;12.50;;;;;;;2.77;100.00;99955.88;2098906;28;20435;-67
2021/12/27 01:03:46;;;;;;;20.27;13.43;;;;;;;2.75;100.00;99951.66;2099047;28;20016;-67
2021/12/27 01:04:46;;;;;;;19.77;12.73;;;;;;;2.75;100.00;99949.94;2098833;28;20077;-67
2021/12/27 01:05:47;;;;;;;20.47;13.13;;;;;;;2.76;100.00;99948.19;2098840;28;20026;-67
2021/12/27 01:06:48;;;;;;;17.35;12.57;;;;;;;2.75;100.00;99949.06;2107896;28;20032;-68
2021/12/27 01:07:48;;;;;;;19.43;11.83;;;;;;;2.76;100.00;99954.19;2107919;28;20039;-68
2021/12/27 01:08:48;;;;;;;21.23;13.40;;;;;;;2.76;100.00;99943.03;2107975;28;20050;-67
2021/12/27 01:11:12;;;;;;;16.55;11.35;;;;;;;2.78;100.00;99942.13;2108006;28;20035;-67
2021/12/27 01:12:30;;;;;;;18.90;12.80;;;;;;;2.79;100.00;99948.97;2107810;28;20020;-66
2021/12/27 01:13:40;;;;;;;18.38;12.30;;;;;;;2.81;100.00;99951.50;2098792;28;20032;-68
2021/12/27 01:14:44;;;;;;;18.55;12.48;;;;;;;2.80;100.00;99952.38;2100222;28;20023;-68
2021/12/27 01:16:47;;;;;;;20.45;13.15;;;;;;;2.81;100.00;99946.34;2107834;28;20027;-67
2021/12/27 01:17:49;;;;;;;17.90;12.27;;;;;;;2.82;100.00;99948.91;2098760;28;20466;-68
2021/12/27 01:18:50;;;;;;;20.92;13.80;;;;;;;2.82;100.00;99948.03;2098873;28;20066;-67
2021/12/27 01:19:50;;;;;;;20.35;12.57;;;;;;;2.83;100.00;99952.31;2107652;28;20546;-67
2021/12/27 01:20:50;;;;;;;19.27;12.23;;;;;;;2.85;100.00;99952.25;2107800;28;20389;-67
2021/12/27 01:21:51;;;;;;;19.13;13.07;;;;;;;2.85;100.00;99952.25;2107714;28;20032;-67
2021/12/27 01:22:53;;;;;;;17.23;12.10;;;;;;;2.86;100.00;99952.22;2107768;28;20024;-67
2021/12/27 01:23:55;;;;;;;21.08;13.32;;;;;;;2.88;100.00;99957.34;2098758;28;20055;-68
2021/12/27 01:24:55;;;;;;;19.48;13.10;;;;;;;2.88;100.00;99947.03;2098979;28;20560;-67
2021/12/27 01:25:55;;;;;;;20.43;12.93;;;;;;;2.89;100.00;99946.16;2107833;28;20035;-67
2021/12/27 01:26:59;;;;;;;18.40;12.13;;;;;;;2.90;100.00;99945.25;2107568;28;20062;-68
2021/12/27 01:27:59;;;;;;;20.33;13.75;;;;;;;2.90;100.00;99951.28;2107701;28;20024;-67
2021/12/27 01:29:01;;;;;;;19.42;13.15;;;;;;;2.90;100.00;99947.84;2107713;28;20026;-66
2021/12/27 01:30:01;;;;;;;;;;;;;;;2.92;100.00;99944.34;2108039;28;20016;-67
2021/12/27 01:31:02;;;;;;;18.95;13.00;;;;;;;2.91;100.00;99945.22;2107740;28;20310;-68
2021/12/27 01:32:02;;;;;;;21.70;14.27;;;;;;;2.92;100.00;99943.50;2107597;28;20024;-66
2021/12/27 01:33:04;;;;;;;21.73;13.60;;;;;;;2.92;100.00;99941.78;2107700;28;20036;-67
2021/12/27 01:34:05;;;;;;;23.67;13.65;;;;;;;2.91;100.00;99941.81;2107649;28;20034;-66
2021/12/27 01:35:05;;;;;;;19.63;13.33;;;;;;;2.92;100.00;99943.50;2107689;28;20034;-66
2021/12/27 01:36:10;;;;;;;19.90;12.98;;;;;;;2.93;100.00;99938.31;2107626;28;20281;-68
2021/12/27 01:37:10;;;;;;;24.38;14.18;;;;;;;2.93;100.00;99940.03;2107578;28;20039;-68
2021/12/27 01:38:12;;;;;;;20.87;12.73;;;;;;;2.94;100.00;99939.13;2107594;28;20544;-68
2021/12/27 01:39:12;;;;;;;23.15;12.32;;;;;;;2.95;100.00;99944.25;2107577;28;20485;-68
2021/12/27 01:40:14;;;;;;;24.83;15.50;;;;;;;2.95;100.00;99933.13;2107669;28;20028;-68
2021/12/27 01:41:16;;;;;;;21.17;13.85;;;;;;;2.97;100.00;99941.66;2107580;28;20020;-68
2021/12/27 01:42:16;;;;;;;21.60;12.80;;;;;;;2.98;100.00;99938.22;2107504;28;20094;-67
2021/12/27 01:43:28;;;;;;;21.77;14.40;;;;;;;2.98;100.00;99938.22;2107629;28;20024;-67
2021/12/27 01:44:28;;;;;;;22.65;13.00;;;;;;;2.99;100.00;99933.88;2107562;28;20032;-68
2021/12/27 01:45:28;;;;;;;22.10;14.50;;;;;;;3.00;100.00;99935.56;2107642;28;20101;-67
2021/12/27 01:46:30;;;;;;;21.55;13.10;;;;;;;3.00;100.00;99926.09;2107030;28;20024;-66
2021/12/27 01:47:31;;;;;;;;;;;;;;;3.01;100.00;99935.53;2099022;28;20024;-67
2021/12/27 01:48:37;;;;;;;20.33;11.63;;;;;;;3.00;100.00;99936.41;2098829;28;19916;-68
2021/12/27 01:49:38;;;;;;;22.65;12.88;;;;;;;3.02;100.00;99931.22;2107607;28;20028;-68
2021/12/27 01:50:41;;;;;;;19.50;12.32;;;;;;;3.01;100.00;99932.13;2107568;28;20020;-68
2021/12/27 01:51:42;;;;;;;20.95;12.73;;;;;;;3.01;100.00;99932.94;2107467;28;20031;-67
2021/12/27 01:52:42;;;;;;;20.25;13.25;;;;;;;3.01;100.00;99927.78;2098441;28;20343;-67
2021/12/27 01:53:44;;;;;;;22.97;11.87;;;;;;;3.02;100.00;99937.25;2090218;28;20029;-67
2021/12/27 01:54:44;;;;;;;24.13;13.00;;;;;;;3.03;100.00;99930.34;2098486;28;20047;-68
2021/12/27 01:55:45;;;;;;;22.33;13.97;;;;;;;3.04;100.00;99938.03;2107493;28;20485;-68
2021/12/27 01:56:46;;;;;;;22.50;14.60;;;;;;;3.03;100.00;99932.91;2107461;28;20299;-67
2021/12/27 01:57:47;;;;;;;24.60;13.63;;;;;;;3.03;100.00;99932.91;2107486;28;20165;-67
2021/12/27 01:58:52;;;;;;;22.95;14.50;;;;;;;3.03;100.00;99936.34;2107423;28;20028;-68
2021/12/27 01:59:52;;;;;;;22.23;13.60;;;;;;;3.04;100.00;99932.88;2107515;28;20481;-67
2021/12/27 02:00:56;;;;;;;23.60;13.80;;;;;;;3.03;100.00;99926.03;2107498;28;20103;-67
2021/12/27 02:01:56;;;;;;;22.27;13.85;;;;;;;3.04;100.00;99935.44;2107370;28;20067;-68
2021/12/27 02:02:57;;;;;;;20.63;12.48;;;;;;;3.04;100.00;99930.28;2107406;28;20372;-68
2021/12/27 02:03:57;;;;;;;21.33;13.43;;;;;;;3.03;100.00;99933.78;2107459;28;20107;-68
2021/12/27 02:04:57;;;;;;;21.00;13.13;;;;;;;3.06;100.00;99925.09;2098414;28;20523;-68
2021/12/27 02:06:00;;;;;;;21.70;13.27;;;;;;;3.06;100.00;99931.13;2098441;28;20035;-68
2021/12/27 02:07:00;;;;;;;20.23;13.18;;;;;;;3.08;100.00;99919.03;2107359;28;20512;-68
2021/12/27 02:08:01;;;;;;;23.30;14.17;;;;;;;3.06;100.00;99923.38;2107439;28;20043;-68
2021/12/27 02:09:04;;;;;;;26.05;14.30;;;;;;;3.08;100.00;99923.34;2107471;28;20476;-68
2021/12/27 02:10:04;;;;;;;21.92;12.68;;;;;;;3.08;100.00;99919.03;2107398;28;20024;-67
2021/12/27 02:11:06;;;;;;;22.85;14.00;;;;;;;3.09;100.00;99925.84;2107425;28;20116;-67
2021/12/27 02:12:07;;;;;;;21.92;13.18;;;;;;;3.11;100.00;99922.41;2107341;28;20024;-66
2021/12/27 02:13:08;;;;;;;28.67;15.80;;;;;;;3.12;100.00;99929.25;2107357;28;20069;-67
2021/12/27 02:14:09;;;;;;;23.08;14.23;;;;;;;3.11;100.00;99928.41;2098288;28;20056;-68
2021/12/27 02:15:10;;;;;;;26.37;14.73;;;;;;;3.12;100.00;99929.25;2090059;28;20021;-67
2021/12/27 02:16:12;;;;;;;28.15;13.35;;;;;;;3.12;100.00;99924.09;2098432;28;20032;-68
2021/12/27 02:17:17;;;;;;;23.73;14.52;;;;;;;3.12;100.00;99924.97;2107323;28;20370;-66
2021/12/27 02:18:18;;;;;;;26.45;15.82;;;;;;;3.12;100.00;99924.09;2107205;28;20531;-68
2021/12/27 02:19:18;;;;;;;25.67;15.77;;;;;;;3.12;100.00;99926.69;2107226;28;20024;-68
2021/12/27 02:20:22;;;;;;;25.60;15.53;;;;;;;3.13;100.00;99930.94;2098265;28;20527;-68
2021/12/27 02:21:24;;;;;;;22.80;13.07;;;;;;;3.12;100.00;99924.97;2098643;28;20112;-68
2021/12/27 02:22:24;;;;;;;25.95;15.40;;;;;;;3.12;100.00;99918.94;2098269;28;20055;-68
2021/12/27 02:23:24;;;;;;;29.13;15.77;;;;;;;3.14;100.00;99924.88;2098262;28;20098;-68
2021/12/27 02:24:25;;;;;;;24.07;14.80;;;;;;;3.15;100.00;99929.19;2106563;28;20024;-68
2021/12/27 02:25:26;;;;;;;25.60;15.80;;;;;;;3.13;100.00;99925.78;2106707;28;20028;-67
2021/12/27 02:26:26;;;;;;;25.35;14.90;;;;;;;3.15;100.00;99929.19;2107250;28;20040;-67
2021/12/27 02:27:26;;;;;;;28.57;15.97;;;;;;;3.15;100.00;99922.28;2107139;28;20485;-67
2021/12/27 02:28:27;;;;;;;24.80;15.30;;;;;;;3.16;100.00;99925.72;2107242;28;20032;-67
2021/12/27 02:29:27;;;;;;;26.43;15.77;;;;;;;3.15;100.00;99921.44;2106599;28;20043;-67
2021/12/27 02:30:30;;;;;;;26.53;15.97;;;;;;;3.15;100.00;99919.69;2106636;28;20082;-68
2021/12/27 02:31:35;;;;;;;26.85;14.05;;;;;;;3.16;100.00;99921.41;2098215;28;20031;-67
2021/12/27 02:32:52;;;;;;;27.85;16.70;;;;;;;3.17;100.00;99917.94;2098876;28;20021;-68
2021/12/27 02:33:52;;;;;;;25.08;15.15;;;;;;;3.18;100.00;99913.63;2106581;28;20477;-68
2021/12/27 02:34:52;;;;;;;30.17;17.27;;;;;;;3.18;100.00;99913.63;2107235;28;20012;-69
2021/12/27 02:35:56;;;;;;;25.63;15.33;;;;;;;3.20;100.00;99906.69;2107245;28;20464;-68
2021/12/27 02:36:57;;;;;;;27.20;15.43;;;;;;;3.21;100.00;99913.53;2107098;28;20073;-68
2021/12/27 02:37:59;;;;;;;29.02;15.77;;;;;;;3.23;100.00;99919.50;2107191;28;20101;-68
2021/12/27 02:39:00;;;;;;;28.73;16.02;;;;;;;3.22;100.00;99920.41;2107104;28;20076;-68
2021/12/27 02:40:00;;;;;;;32.83;17.50;;;;;;;3.22;100.00;99925.56;2107203;28;20066;-68
2021/12/27 02:41:01;;;;;;;28.50;13.83;;;;;;;3.22;100.00;99931.53;2107203;28;20102;-68
2021/12/27 02:42:02;;;;;;;30.85;15.75;;;;;;;3.23;100.00;99932.41;2107118;28;20473;-67
2021/12/27 02:43:23;;;;;;;27.58;15.48;;;;;;;3.25;100.00;99930.63;2107121;28;20024;-67
2021/12/27 02:44:23;;;;;;;24.73;14.43;;;;;;;3.23;100.00;99927.25;2107122;28;20020;-67
2021/12/27 02:45:25;;;;;;;27.77;14.87;;;;;;;3.25;100.00;99927.22;2107217;28;20074;-68
2021/12/27 02:46:25;;;;;;;31.27;16.45;;;;;;;3.24;100.00;99923.78;2107046;28;20107;-67
2021/12/27 02:47:26;;;;;;;26.23;15.03;;;;;;;3.26;100.00;99927.16;2107077;28;20028;-67
2021/12/27 02:48:33;;;;;;;26.37;14.53;;;;;;;3.26;100.00;99931.47;2107142;28;20076;-69
2021/12/27 02:49:34;;;;;;;27.88;15.52;;;;;;;3.27;100.00;99923.69;2107039;28;20020;-68
2021/12/27 02:50:35;;;;;;;29.27;15.53;;;;;;;3.28;100.00;99925.38;2107132;28;20039;-68
2021/12/27 02:51:35;;;;;;;;;;;;;;;3.30;100.00;99923.63;2107462;28;20064;-68
2021/12/27 02:52:36;;;;;;;25.65;14.68;;;;;;;3.27;100.00;99923.69;2107070;28;19912;-67
2021/12/27 02:53:36;;;;;;;27.10;15.80;;;;;;;3.28;100.00;99914.25;2097953;28;20020;-68
2021/12/27 02:54:40;;;;;;;26.77;14.63;;;;;;;3.28;100.00;99917.66;2098057;28;20086;-67
2021/12/27 02:55:41;;;;;;;26.63;14.55;;;;;;;3.27;100.00;99917.69;2107047;28;20366;-67
2021/12/27 02:56:41;;;;;;;29.15;15.00;;;;;;;3.26;100.00;99911.69;2097953;28;20082;-67
2021/12/27 02:57:43;;;;;;;31.97;15.40;;;;;;;3.29;100.00;99910.75;2098112;28;20082;-67
2021/12/27 02:58:44;;;;;;;28.48;16.45;;;;;;;3.27;100.00;99905.66;2106995;28;20521;-67
2021/12/27 02:59:45;;;;;;;;;;;;;;;3.28;100.00;99909.91;2107353;28;20032;-67
2021/12/27 03:00:50;;;;;;;28.52;14.02;;;;;;;3.29;100.00;99906.44;2106967;28;19944;-68
2021/12/27 03:01:50;;;;;;;30.98;15.73;;;;;;;3.30;100.00;99912.44;2107083;28;20016;-68
2021/12/27 03:02:51;;;;;;;29.23;15.93;;;;;;;3.29;100.00;99901.28;2107011;28;20485;-67
2021/12/27 03:03:52;;;;;;;27.83;15.18;;;;;;;3.31;100.00;99904.66;2107009;28;20469;-68
2021/12/27 03:04:52;;;;;;;33.33;16.80;;;;;;;3.30;100.00;99903.00;2097938;28;20030;-67
2021/12/27 03:05:53;;;;;;;31.33;16.27;;;;;;;3.31;100.00;99909.81;2097943;28;20013;-67
2021/12/27 03:06:54;;;;;;;26.67;15.50;;;;;;;3.31;100.00;99904.66;2106964;28;20533;-67
2021/12/27 03:07:55;;;;;;;31.20;16.00;;;;;;;3.34;100.00;99903.75;2107060;28;20073;-67
2021/12/27 03:08:56;;;;;;;28.83;14.80;;;;;;;3.35;100.00;99906.28;2106949;28;20081;-66
2021/12/27 03:09:58;;;;;;;35.10;16.80;;;;;;;3.35;100.00;99906.28;2106811;28;20024;-67
2021/12/27 03:11:00;;;;;;;34.58;16.73;;;;;;;3.35;100.00;99900.25;2106883;28;20492;-67
2021/12/27 03:12:00;;;;;;;32.53;17.08;;;;;;;3.36;100.00;99904.56;2097793;28;20043;-68
2021/12/27 03:13:02;;;;;;;36.03;17.90;;;;;;;3.35;100.00;99901.13;2097926;28;20092;-67
2021/12/27 03:14:03;;;;;;;30.75;16.58;;;;;;;3.37;100.00;99893.34;2106877;28;20090;-68
2021/12/27 03:15:09;;;;;;;32.47;16.73;;;;;;;3.38;100.00;99899.34;2106197;28;20109;-68
2021/12/27 03:16:13;;;;;;;28.25;16.73;;;;;;;3.37;100.00;99897.63;2106374;28;20531;-68
2021/12/27 03:17:13;;;;;;;34.35;17.45;;;;;;;3.37;100.00;99892.47;2106957;28;20051;-67
2021/12/27 03:18:13;;;;;;;34.93;17.80;;;;;;;3.38;100.00;99897.59;2106937;28;20035;-67
2021/12/27 03:19:14;;;;;;;28.40;15.80;;;;;;;3.39;100.00;99888.16;2106692;28;20027;-67
2021/12/27 03:20:16;;;;;;;33.57;17.70;;;;;;;3.39;100.00;99888.16;2106853;28;20496;-67
2021/12/27 03:21:18;;;;;;;29.73;16.60;;;;;;;3.41;100.00;99896.66;2107146;28;20016;-67
2021/12/27 03:22:18;;;;;;;;;;;;;;;3.43;100.00;99887.16;2107301;28;20030;-67
2021/12/27 03:23:19;;;;;;;29.45;16.27;;;;;;;3.41;100.00;99889.78;2106886;28;19908;-67
2021/12/27 03:24:19;;;;;;;31.80;15.75;;;;;;;3.42;100.00;99890.66;2106989;28;20103;-68
2021/12/27 03:25:22;;;;;;;28.00;16.23;;;;;;;3.43;100.00;99887.16;2097764;28;20032;-67
2021/12/27 03:26:23;;;;;;;34.88;17.42;;;;;;;3.43;100.00;99888.03;2098183;28;20035;-68
2021/12/27 03:27:23;;;;;;;29.80;15.90;;;;;;;3.44;100.00;99888.84;2106778;28;20404;-68
2021/12/27 03:28:24;;;;;;;27.33;16.23;;;;;;;3.44;100.00;99894.00;2097734;28;20035;-68
2021/12/27 03:29:24;;;;;;;28.58;16.08;;;;;;;3.45;100.00;99896.56;2097935;28;20069;-68
2021/12/27 03:30:26;;;;;;;29.20;16.87;;;;;;;3.46;100.00;99893.06;2106877;28;20051;-67
2021/12/27 03:31:26;;;;;;;31.85;16.52;;;;;;;3.46;100.00;99895.66;2106709;28;20027;-67
2021/12/27 03:32:27;;;;;;;30.73;16.77;;;;;;;3.45;100.00;99893.13;2106841;28;20028;-68
2021/12/27 03:33:28;;;;;;;29.37;17.80;;;;;;;3.45;100.00;99891.38;2106722;28;20107;-67
2021/12/27 03:34:31;;;;;;;33.15;16.70;;;;;;;3.47;100.00;99891.34;2106894;28;20439;-68
2021/12/27 03:35:36;;;;;;;31.30;17.35;;;;;;;3.46;100.00;99887.91;2106709;28;20028;-68
2021/12/27 03:36:39;;;;;;;36.95;18.65;;;;;;;3.45;100.00;99881.06;2106705;28;20473;-67
2021/12/27 03:37:45;;;;;;;32.05;16.65;;;;;;;3.47;100.00;99878.44;2097697;28;20024;-67
2021/12/27 03:38:49;;;;;;;32.80;16.95;;;;;;;3.46;100.00;99881.94;2098663;28;20028;-66
2021/12/27 03:39:50;;;;;;;36.63;16.52;;;;;;;3.45;100.00;99880.22;2106613;28;20031;-68
2021/12/27 03:40:50;;;;;;;33.90;17.13;;;;;;;3.45;100.00;99885.38;2106765;28;20389;-66
2021/12/27 03:41:51;;;;;;;34.80;18.47;;;;;;;3.45;100.00;99887.94;2106712;28;20064;-67
2021/12/27 03:42:52;;;;;;;31.73;17.23;;;;;;;3.45;100.00;99881.06;2106642;28;20024;-67
2021/12/27 03:43:53;;;;;;;32.88;17.02;;;;;;;3.46;100.00;99876.78;2106619;28;20107;-68
2021/12/27 03:44:53;;;;;;;38.08;20.50;;;;;;;3.47;100.00;99891.34;2106505;28;20020;-67
2021/12/27 03:45:54;;;;;;;36.00;16.67;;;;;;;3.47;100.00;99881.88;2097007;28;20071;-67
2021/12/27 03:46:54;;;;;;;31.37;16.37;;;;;;;3.48;100.00;99885.28;2097851;28;20496;-67
2021/12/27 03:47:54;;;;;;;33.33;16.77;;;;;;;3.48;100.00;99881.00;2106700;28;20020;-67
2021/12/27 03:48:55;;;;;;;30.83;16.27;;;;;;;3.50;100.00;99883.53;2106685;28;20116;-67
2021/12/27 03:49:55;;;;;;;33.72;16.83;;;;;;;3.50;100.00;99878.38;2106627;28;20040;-67
2021/12/27 03:50:57;;;;;;;32.60;15.70;;;;;;;3.51;100.00;99874.91;2097637;28;20097;-67
2021/12/27 03:51:57;;;;;;;31.90;17.20;;;;;;;3.53;100.00;99883.44;2097778;28;20051;-68
2021/12/27 03:52:58;;;;;;;37.10;19.67;;;;;;;3.53;100.00;99862.81;2106690;28;20030;-67
2021/12/27 03:53:59;;;;;;;31.75;17.02;;;;;;;3.54;100.00;99868.78;2106697;28;20545;-68
2021/12/27 03:54:59;;;;;;;32.25;16.35;;;;;;;3.53;100.00;99873.13;2106657;28;20035;-68
2021/12/27 03:55:59;;;;;;;35.50;18.17;;;;;;;3.52;100.00;99868.84;2106496;28;20034;-68
2021/12/27 03:57:00;;;;;;;32.90;17.77;;;;;;;3.55;100.00;99871.34;2097526;28;20325;-67
2021/12/27 03:58:09;;;;;;;35.80;18.37;;;;;;;3.56;100.00;99862.69;2097738;28;20028;-68
2021/12/27 03:59:22;;;;;;;36.22;17.85;;;;;;;3.56;100.00;99861.88;2106486;28;20110;-68
2021/12/27 04:00:31;;;;;;;35.22;16.98;;;;;;;3.57;100.00;99861.81;2106570;28;20038;-69
2021/12/27 04:01:31;;;;;;;38.25;19.55;;;;;;;3.56;100.00;99857.53;2097586;28;20031;-68
2021/12/27 04:02:35;;;;;;;37.50;19.73;;;;;;;3.58;100.00;99860.06;2089408;28;20468;-68
2021/12/27 04:03:35;;;;;;;38.35;18.70;;;;;;;3.58;100.00;99852.34;2098063;28;20029;-68
2021/12/27 04:04:36;;;;;;;33.47;17.23;;;;;;;3.57;100.00;99854.09;2106661;28;20026;-67
2021/12/27 04:05:36;;;;;;;33.10;16.60;;;;;;;3.58;100.00;99858.34;2106547;28;20135;-68
2021/12/27 04:06:36;;;;;;;34.97;19.37;;;;;;;3.57;100.00;99853.22;2106597;28;20034;-68
2021/12/27 04:07:39;;;;;;;33.70;17.23;;;;;;;3.57;100.00;99850.66;2097460;28;20501;-67
2021/12/27 04:08:39;;;;;;;39.40;19.70;;;;;;;3.57;100.00;99850.66;2089296;28;20474;-67
2021/12/27 04:09:39;;;;;;;33.63;17.53;;;;;;;3.57;100.00;99859.25;2097676;28;20041;-67
2021/12/27 04:10:41;;;;;;;33.07;18.63;;;;;;;3.57;100.00;99848.94;2106779;28;20044;-68
2021/12/27 04:11:42;;;;;;;34.22;18.35;;;;;;;3.57;100.00;99850.66;2106447;28;20082;-67
2021/12/27 04:12:42;;;;;;;36.67;18.47;;;;;;;3.58;100.00;99848.03;2106618;28;20020;-68
2021/12/27 04:13:43;;;;;;;38.57;19.93;;;;;;;3.58;100.00;99845.44;2097520;28;20044;-67
2021/12/27 04:14:43;;;;;;;32.45;17.52;;;;;;;3.59;100.00;99841.97;2097596;28;20841;-66
2021/12/27 04:15:44;;;;;;;37.53;18.17;;;;;;;3.58;100.00;99840.28;2106551;28;20040;-68
2021/12/27 04:16:46;;;;;;;37.67;18.92;;;;;;;3.58;100.00;99845.44;2097588;28;20021;-67
2021/12/27 04:17:47;;;;;;;36.10;19.08;;;;;;;3.59;100.00;99847.13;2097662;28;20516;-67
2021/12/27 04:18:47;;;;;;;36.28;19.27;;;;;;;3.59;100.00;99834.22;2106023;28;20114;-67
2021/12/27 04:19:48;;;;;;;39.67;20.88;;;;;;;3.59;100.00;99839.41;2106387;28;20126;-67
2021/12/27 04:20:48;;;;;;;37.87;18.97;;;;;;;3.60;100.00;99838.50;2106608;28;20073;-68
2021/12/27 04:21:48;;;;;;;35.47;19.97;;;;;;;3.61;100.00;99841.94;2097454;28;20028;-69
2021/12/27 04:22:49;;;;;;;35.73;17.80;;;;;;;3.62;100.00;99835.03;2097480;28;20052;-67
2021/12/27 04:23:49;;;;;;;35.95;17.83;;;;;;;3.62;100.00;99838.44;2105941;28;20016;-67
2021/12/27 04:24:50;;;;;;;36.03;17.03;;;;;;;3.64;100.00;99838.41;2106553;28;20051;-67
2021/12/27 04:25:50;;;;;;;39.57;18.13;;;;;;;3.66;100.00;99836.66;2106509;28;20477;-67
2021/12/27 04:26:50;;;;;;;34.57;16.97;;;;;;;3.67;100.00;99835.75;2106377;28;20032;-67
2021/12/27 04:27:51;;;;;;;35.27;18.40;;;;;;;3.67;100.00;99834.03;2106585;28;20028;-67
2021/12/27 04:28:52;;;;;;;36.40;17.65;;;;;;;3.69;100.00;99831.38;2106552;28;20032;-68
2021/12/27 04:29:52;;;;;;;35.05;18.15;;;;;;;3.69;100.00;99823.63;2106502;28;20026;-67
2021/12/27 04:30:52;;;;;;;37.70;18.48;;;;;;;3.69;100.00;99832.22;2106552;28;20020;-68
2021/12/27 04:31:53;;;;;;;36.27;17.87;;;;;;;3.71;100.00;99824.44;2106515;28;20020;-68
2021/12/27 04:32:53;;;;;;;36.67;18.47;;;;;;;3.68;100.00;99829.69;2106511;28;20070;-67
2021/12/27 04:33:54;;;;;;;34.05;18.30;;;;;;;3.69;100.00;99823.63;2106417;28;20024;-68
2021/12/27 04:34:54;;;;;;;35.03;18.53;;;;;;;3.69;100.00;99816.75;2106592;28;20431;-67
2021/12/27 04:35:54;;;;;;;37.80;18.20;;;;;;;3.69;100.00;99821.03;2106481;28;20030;-67
2021/12/27 04:36:55;;;;;;;40.23;18.87;;;;;;;3.70;100.00;99817.59;2106403;28;20036;-68
2021/12/27 04:37:55;;;;;;;32.83;16.73;;;;;;;3.70;100.00;99817.59;2106582;28;20032;-67
2021/12/27 04:38:56;;;;;;;37.85;18.67;;;;;;;3.69;100.00;99818.47;2106516;28;20496;-67
2021/12/27 04:39:58;;;;;;;33.10;19.00;;;;;;;3.70;100.00;99820.19;2106490;28;20488;-68
2021/12/27 04:40:58;;;;;;;35.58;18.27;;;;;;;3.70;100.00;99820.19;2106756;28;20106;-69
2021/12/27 04:41:59;;;;;;;38.88;19.52;;;;;;;3.71;100.00;99820.13;2106808;28;20032;-68
2021/12/27 04:43:07;;;;;;;36.33;18.30;;;;;;;3.71;100.00;99825.28;2097527;28;20059;-68
2021/12/27 04:44:08;;;;;;;32.85;15.35;;;;;;;3.72;100.00;99823.53;2098477;28;20116;-67